sensor_id;sensor_type;location;lat;lon;timestamp;pressure;altitude;pressure_sealevel;temperature;humidity
65131;BME280;51709;54.912;8.316;2022-11-15T00:04:03;101027.91;;;5.70;84.26
65131;BME280;51709;54.912;8.316;2022-11-15T00:09:43;101008.38;;;5.75;84.25
65131;BME280;51709;54.912;8.316;2022-11-15T00:15:24;101015.16;;;5.76;84.04
65131;BME280;51709;54.912;8.316;2022-11-15T00:21:06;101006.69;;;5.76;84.28
65131;BME280;51709;54.912;8.316;2022-11-15T00:26:45;101003.28;;;5.75;84.35
65131;BME280;51709;54.912;8.316;2022-11-15T00:32:25;100989.72;;;5.75;84.33
65131;BME280;51709;54.912;8.316;2022-11-15T00:38:04;100982.06;;;5.75;84.34
65131;BME280;51709;54.912;8.316;2022-11-15T00:43:43;100965.09;;;5.78;84.52
65131;BME280;51709;54.912;8.316;2022-11-15T00:49:22;100969.34;;;5.87;84.38
65131;BME280;51709;54.912;8.316;2022-11-15T00:55:02;100972.75;;;6.01;84.44
65131;BME280;51709;54.912;8.316;2022-11-15T01:00:41;100982.09;;;6.12;84.21
65131;BME280;51709;54.912;8.316;2022-11-15T01:06:20;100973.63;;;6.19;84.07
65131;BME280;51709;54.912;8.316;2022-11-15T01:12:00;100971.06;;;6.24;84.19
65131;BME280;51709;54.912;8.316;2022-11-15T01:17:39;100964.28;;;6.26;84.21
65131;BME280;51709;54.912;8.316;2022-11-15T01:23:19;100961.69;;;6.32;84.25
65131;BME280;51709;54.912;8.316;2022-11-15T01:28:58;100955.78;;;6.35;84.34
65131;BME280;51709;54.912;8.316;2022-11-15T01:34:37;100949.78;;;6.42;84.27
65131;BME280;51709;54.912;8.316;2022-11-15T01:40:16;100944.69;;;6.50;84.11
65131;BME280;51709;54.912;8.316;2022-11-15T01:46:00;100930.22;;;6.55;84.02
65131;BME280;51709;54.912;8.316;2022-11-15T01:51:41;100932.75;;;6.59;84.32
65131;BME280;51709;54.912;8.316;2022-11-15T01:57:20;100935.28;;;6.69;84.13
65131;BME280;51709;54.912;8.316;2022-11-15T02:02:59;100916.53;;;6.81;83.99
65131;BME280;51709;54.912;8.316;2022-11-15T02:08:38;100922.47;;;6.86;83.96
65131;BME280;51709;54.912;8.316;2022-11-15T02:14:19;100914.78;;;6.92;84.25
65131;BME280;51709;54.912;8.316;2022-11-15T02:26:02;100904.50;;;7.04;84.05
65131;BME280;51709;54.912;8.316;2022-11-15T02:32:06;100890.84;;;7.10;84.29
65131;BME280;51709;54.912;8.316;2022-11-15T02:37:58;100898.47;;;7.19;84.02
65131;BME280;51709;54.912;8.316;2022-11-15T02:49:36;100900.09;;;7.31;84.07
65131;BME280;51709;54.912;8.316;2022-11-15T03:07:18;100869.41;;;7.39;84.18
65131;BME280;51709;54.912;8.316;2022-11-15T03:13:16;100871.06;;;7.45;84.09
65131;BME280;51709;54.912;8.316;2022-11-15T03:24:51;100843.75;;;7.54;84.09
65131;BME280;51709;54.912;8.316;2022-11-15T03:30:34;100833.50;;;7.58;84.22
65131;BME280;51709;54.912;8.316;2022-11-15T03:36:17;100836.03;;;7.59;84.14
65131;BME280;51709;54.912;8.316;2022-11-15T03:47:47;100829.22;;;7.61;84.08
65131;BME280;51709;54.912;8.316;2022-11-15T03:53:28;100832.63;;;7.60;84.17
65131;BME280;51709;54.912;8.316;2022-11-15T03:59:08;100840.31;;;7.55;84.31
65131;BME280;51709;54.912;8.316;2022-11-15T04:04:47;100832.69;;;7.54;84.34
65131;BME280;51709;54.912;8.316;2022-11-15T04:10:26;100825.13;;;7.42;84.52
65131;BME280;51709;54.912;8.316;2022-11-15T04:16:05;100828.66;;;7.25;85.00
65131;BME280;51709;54.912;8.316;2022-11-15T04:21:45;100837.19;;;7.22;84.74
65131;BME280;51709;54.912;8.316;2022-11-15T04:27:42;100843.25;;;7.11;84.96
65131;BME280;51709;54.912;8.316;2022-11-15T04:33:22;100834.72;;;7.10;84.84
65131;BME280;51709;54.912;8.316;2022-11-15T04:39:03;100838.13;;;7.11;84.85
65131;BME280;51709;54.912;8.316;2022-11-15T04:44:42;100837.28;;;7.10;84.63
65131;BME280;51709;54.912;8.316;2022-11-15T04:50:21;100850.84;;;7.14;84.58
65131;BME280;51709;54.912;8.316;2022-11-15T04:56:01;100851.66;;;7.20;84.36
65131;BME280;51709;54.912;8.316;2022-11-15T05:01:40;100860.16;;;7.19;84.37
65131;BME280;51709;54.912;8.316;2022-11-15T05:07:23;100849.94;;;7.24;84.35
65131;BME280;51709;54.912;8.316;2022-11-15T05:13:02;100844.84;;;7.19;84.45
65131;BME280;51709;54.912;8.316;2022-11-15T05:18:42;100850.84;;;7.15;84.62
65131;BME280;51709;54.912;8.316;2022-11-15T05:24:21;100850.91;;;7.04;84.66
65131;BME280;51709;54.912;8.316;2022-11-15T05:30:01;100850.13;;;6.96;84.78
65131;BME280;51709;54.912;8.316;2022-11-15T05:35:42;100836.63;;;6.80;85.20
65131;BME280;51709;54.912;8.316;2022-11-15T05:41:42;100838.31;;;6.76;85.03
65131;BME280;51709;54.912;8.316;2022-11-15T05:47:25;100833.25;;;6.73;84.92
65131;BME280;51709;54.912;8.316;2022-11-15T05:53:07;100846.00;;;6.67;85.08
65131;BME280;51709;54.912;8.316;2022-11-15T05:58:46;100856.25;;;6.62;84.95
65131;BME280;51709;54.912;8.316;2022-11-15T06:04:26;100850.28;;;6.60;85.20
65131;BME280;51709;54.912;8.316;2022-11-15T06:10:06;100851.16;;;6.58;85.14
65131;BME280;51709;54.912;8.316;2022-11-15T06:15:45;100853.69;;;6.59;85.12
65131;BME280;51709;54.912;8.316;2022-11-15T06:21:24;100855.41;;;6.56;85.15
65131;BME280;51709;54.912;8.316;2022-11-15T06:27:07;100840.94;;;6.61;85.10
65131;BME280;51709;54.912;8.316;2022-11-15T06:32:46;100840.94;;;6.62;85.02
65131;BME280;51709;54.912;8.316;2022-11-15T06:38:26;100834.13;;;6.66;85.02
65131;BME280;51709;54.912;8.316;2022-11-15T06:44:05;100845.16;;;6.71;85.07
65131;BME280;51709;54.912;8.316;2022-11-15T06:49:44;100853.59;;;6.79;84.96
65131;BME280;51709;54.912;8.316;2022-11-15T06:55:23;100868.03;;;6.87;84.76
65131;BME280;51709;54.912;8.316;2022-11-15T07:01:05;100858.63;;;6.98;84.59
65131;BME280;51709;54.912;8.316;2022-11-15T07:06:48;100853.47;;;7.07;84.67
65131;BME280;51709;54.912;8.316;2022-11-15T07:12:27;100878.88;;;7.23;84.22
65131;BME280;51709;54.912;8.316;2022-11-15T07:18:06;100888.16;;;7.32;84.01
65131;BME280;51709;54.912;8.316;2022-11-15T07:23:46;100878.78;;;7.37;84.28
65131;BME280;51709;54.912;8.316;2022-11-15T07:29:25;100864.22;;;7.50;84.20
65131;BME280;51709;54.912;8.316;2022-11-15T07:35:05;100850.59;;;7.52;84.28
65131;BME280;51709;54.912;8.316;2022-11-15T07:40:44;100833.47;;;7.64;84.24
65131;BME280;51709;54.912;8.316;2022-11-15T07:46:24;100844.44;;;7.74;83.98
65131;BME280;51709;54.912;8.316;2022-11-15T07:52:03;100869.91;;;7.81;83.92
65131;BME280;51709;54.912;8.316;2022-11-15T07:57:43;100891.06;;;7.96;83.64
65131;BME280;51709;54.912;8.316;2022-11-15T08:03:22;100881.72;;;7.95;83.90
65131;BME280;51709;54.912;8.316;2022-11-15T08:09:02;100867.19;;;7.98;83.97
65131;BME280;51709;54.912;8.316;2022-11-15T08:14:41;100860.41;;;7.96;84.01
65131;BME280;51709;54.912;8.316;2022-11-15T08:20:23;100846.75;;;7.98;84.21
65131;BME280;51709;54.912;8.316;2022-11-15T08:26:04;100838.06;;;8.13;83.45
65131;BME280;51709;54.912;8.316;2022-11-15T08:31:43;100855.94;;;8.16;83.47
65131;BME280;51709;54.912;8.316;2022-11-15T08:37:22;100855.88;;;8.23;83.64
65131;BME280;51709;54.912;8.316;2022-11-15T08:43:02;100855.91;;;8.18;83.95
65131;BME280;51709;54.912;8.316;2022-11-15T08:48:42;100862.59;;;8.33;83.50
65131;BME280;51709;54.912;8.316;2022-11-15T08:54:21;100872.88;;;8.27;83.83
65131;BME280;51709;54.912;8.316;2022-11-15T09:00:00;100859.16;;;8.32;83.67
65131;BME280;51709;54.912;8.316;2022-11-15T09:05:39;100864.97;;;8.48;83.20
65131;BME280;51709;54.912;8.316;2022-11-15T09:11:19;100861.47;;;8.57;83.04
65131;BME280;51709;54.912;8.316;2022-11-15T09:17:00;100855.38;;;8.69;82.61
65131;BME280;51709;54.912;8.316;2022-11-15T09:22:41;100857.84;;;8.74;82.63
65131;BME280;51709;54.912;8.316;2022-11-15T09:28:20;100871.56;;;8.68;83.04
65131;BME280;51709;54.912;8.316;2022-11-15T09:33:59;100870.78;;;8.63;83.36
65131;BME280;51709;54.912;8.316;2022-11-15T09:39:38;100868.00;;;8.82;82.91
65131;BME280;51709;54.912;8.316;2022-11-15T10:05:57;100852.50;;;9.49;81.44
65131;BME280;51709;54.912;8.316;2022-11-15T10:11:25;100855.72;;;9.59;81.40
65131;BME280;51709;54.912;8.316;2022-11-15T10:17:13;100855.69;;;9.62;81.50
65131;BME280;51709;54.912;8.316;2022-11-15T10:22:44;100848.03;;;9.59;81.72
65131;BME280;51709;54.912;8.316;2022-11-15T10:28:13;100840.28;;;9.65;81.78
65131;BME280;51709;54.912;8.316;2022-11-15T10:33:35;100842.66;;;9.76;82.00
65131;BME280;51709;54.912;8.316;2022-11-15T10:38:57;100844.41;;;9.74;82.12
65131;BME280;51709;54.912;8.316;2022-11-15T10:44:20;100834.88;;;9.80;82.19
65131;BME280;51709;54.912;8.316;2022-11-15T10:49:53;100829.69;;;9.83;82.13
65131;BME280;51709;54.912;8.316;2022-11-15T11:00:36;100824.97;;;10.07;81.72
65131;BME280;51709;54.912;8.316;2022-11-15T11:06:13;100830.00;;;10.13;81.51
65131;BME280;51709;54.912;8.316;2022-11-15T11:11:46;100824.31;;;9.97;81.93
65131;BME280;51709;54.912;8.316;2022-11-15T11:17:51;100828.44;;;10.05;82.27
65131;BME280;51709;54.912;8.316;2022-11-15T11:23:48;100820.72;;;10.06;82.06
65131;BME280;51709;54.912;8.316;2022-11-15T11:30:12;100825.94;;;10.01;81.91
65131;BME280;51709;54.912;8.316;2022-11-15T11:35:13;100820.97;;;9.92;81.99
65131;BME280;51709;54.912;8.316;2022-11-15T11:40:57;100809.13;;;9.86;82.25
65131;BME280;51709;54.912;8.316;2022-11-15T11:46:43;100805.00;;;9.79;82.13
65131;BME280;51709;54.912;8.316;2022-11-15T11:57:47;100807.06;;;9.59;82.74
65131;BME280;51709;54.912;8.316;2022-11-15T12:03:30;100794.22;;;9.60;82.50
65131;BME280;51709;54.912;8.316;2022-11-15T12:20:20;100786.19;;;9.79;81.62
65131;BME280;51709;54.912;8.316;2022-11-15T12:25:53;100769.03;;;9.84;81.63
65131;BME280;51709;54.912;8.316;2022-11-15T12:31:21;100780.84;;;9.91;81.47
65131;BME280;51709;54.912;8.316;2022-11-15T12:36:44;100771.22;;;10.02;81.38
65131;BME280;51709;54.912;8.316;2022-11-15T12:47:26;100760.63;;;10.20;81.19
65131;BME280;51709;54.912;8.316;2022-11-15T13:20:32;100740.25;;;10.13;81.71
65131;BME280;51709;54.912;8.316;2022-11-15T13:26:06;100730.72;;;10.18;81.64
65131;BME280;51709;54.912;8.316;2022-11-15T13:31:37;100734.97;;;10.20;81.47
65131;BME280;51709;54.912;8.316;2022-11-15T13:37:00;100743.38;;;10.28;81.57
65131;BME280;51709;54.912;8.316;2022-11-15T13:42:21;100741.34;;;10.44;81.18
65131;BME280;51709;54.912;8.316;2022-11-15T13:47:42;100738.84;;;10.41;81.17
65131;BME280;51709;54.912;8.316;2022-11-15T13:53:03;100740.59;;;10.37;81.46
65131;BME280;51709;54.912;8.316;2022-11-15T13:58:24;100744.03;;;10.36;81.52
65131;BME280;51709;54.912;8.316;2022-11-15T14:03:51;100728.19;;;10.17;82.49
65131;BME280;51709;54.912;8.316;2022-11-15T14:09:32;100719.78;;;10.10;82.73
65131;BME280;51709;54.912;8.316;2022-11-15T14:14:53;100721.63;;;10.05;82.84
65131;BME280;51709;54.912;8.316;2022-11-15T14:20:30;100725.94;;;10.01;83.18
65131;BME280;51709;54.912;8.316;2022-11-15T14:25:53;100719.97;;;10.01;83.11
65131;BME280;51709;54.912;8.316;2022-11-15T14:31:14;100714.00;;;10.00;83.13
65131;BME280;51709;54.912;8.316;2022-11-15T14:36:35;100710.66;;;9.98;83.28
65131;BME280;51709;54.912;8.316;2022-11-15T14:41:55;100707.28;;;9.95;83.36
65131;BME280;51709;54.912;8.316;2022-11-15T14:47:16;100699.63;;;9.93;83.47
65131;BME280;51709;54.912;8.316;2022-11-15T14:52:37;100712.34;;;9.98;83.23
65131;BME280;51709;54.912;8.316;2022-11-15T14:57:58;100704.59;;;10.01;83.07
65131;BME280;51709;54.912;8.316;2022-11-15T15:03:19;100694.41;;;9.98;83.17
65131;BME280;51709;54.912;8.316;2022-11-15T15:08:40;100693.63;;;9.94;83.34
65131;BME280;51709;54.912;8.316;2022-11-15T15:14:01;100699.63;;;9.93;83.29
65131;BME280;51709;54.912;8.316;2022-11-15T15:19:21;100704.91;;;9.85;83.72
65131;BME280;51709;54.912;8.316;2022-11-15T15:24:46;100703.09;;;9.91;83.42
65131;BME280;51709;54.912;8.316;2022-11-15T15:30:07;100709.97;;;9.89;83.47
65131;BME280;51709;54.912;8.316;2022-11-15T15:35:32;100707.47;;;9.85;83.64
65131;BME280;51709;54.912;8.316;2022-11-15T15:40:52;100716.91;;;9.83;83.88
65131;BME280;51709;54.912;8.316;2022-11-15T15:46:18;100718.69;;;9.81;83.74
65131;BME280;51709;54.912;8.316;2022-11-15T15:51:38;100724.53;;;9.86;83.66
65131;BME280;51709;54.912;8.316;2022-11-15T15:56:59;100707.47;;;9.87;83.67
65131;BME280;51709;54.912;8.316;2022-11-15T16:02:19;100712.53;;;9.89;83.71
65131;BME280;51709;54.912;8.316;2022-11-15T16:07:40;100692.06;;;9.87;83.89
65131;BME280;51709;54.912;8.316;2022-11-15T16:13:03;100689.56;;;9.84;83.78
65131;BME280;51709;54.912;8.316;2022-11-15T16:18:24;100667.44;;;9.80;83.83
65131;BME280;51709;54.912;8.316;2022-11-15T16:23:44;100676.94;;;9.75;83.83
65131;BME280;51709;54.912;8.316;2022-11-15T16:29:05;100665.94;;;9.69;84.18
65131;BME280;51709;54.912;8.316;2022-11-15T16:34:27;100661.66;;;9.70;84.05
65131;BME280;51709;54.912;8.316;2022-11-15T16:39:51;100655.72;;;9.66;83.91
65131;BME280;51709;54.912;8.316;2022-11-15T16:45:18;100653.31;;;9.60;84.32
65131;BME280;51709;54.912;8.316;2022-11-15T16:50:39;100650.75;;;9.60;84.15
65131;BME280;51709;54.912;8.316;2022-11-15T16:56:00;100649.06;;;9.59;84.07
65131;BME280;51709;54.912;8.316;2022-11-15T17:01:24;100633.69;;;9.59;84.19
65131;BME280;51709;54.912;8.316;2022-11-15T17:06:46;100631.94;;;9.61;84.03
65131;BME280;51709;54.912;8.316;2022-11-15T17:12:08;100627.81;;;9.54;84.08
65131;BME280;51709;54.912;8.316;2022-11-15T17:17:29;100627.78;;;9.55;84.33
65131;BME280;51709;54.912;8.316;2022-11-15T17:22:50;100615.00;;;9.54;84.40
65131;BME280;51709;54.912;8.316;2022-11-15T17:28:12;100610.69;;;9.56;84.07
65131;BME280;51709;54.912;8.316;2022-11-15T17:33:32;100611.53;;;9.56;84.25
65131;BME280;51709;54.912;8.316;2022-11-15T17:38:53;100609.66;;;9.65;83.96
65131;BME280;51709;54.912;8.316;2022-11-15T17:44:18;100611.34;;;9.66;84.05
65131;BME280;51709;54.912;8.316;2022-11-15T17:49:39;100615.59;;;9.67;84.11
65131;BME280;51709;54.912;8.316;2022-11-15T17:55:00;100606.22;;;9.64;84.21
65131;BME280;51709;54.912;8.316;2022-11-15T18:00:20;100616.47;;;9.64;84.19
65131;BME280;51709;54.912;8.316;2022-11-15T18:05:41;100614.78;;;9.65;84.02
65131;BME280;51709;54.912;8.316;2022-11-15T18:11:11;100597.72;;;9.64;84.27
65131;BME280;51709;54.912;8.316;2022-11-15T18:16:35;100587.44;;;9.65;84.29
65131;BME280;51709;54.912;8.316;2022-11-15T18:21:56;100591.84;;;9.59;84.44
65131;BME280;51709;54.912;8.316;2022-11-15T18:27:17;100593.03;;;9.42;84.77
65131;BME280;51709;54.912;8.316;2022-11-15T18:32:37;100583.03;;;9.30;85.11
65131;BME280;51709;54.912;8.316;2022-11-15T18:37:58;100584.94;;;9.20;85.24
65131;BME280;51709;54.912;8.316;2022-11-15T18:43:18;100579.06;;;9.15;85.34
65131;BME280;51709;54.912;8.316;2022-11-15T18:48:41;100579.22;;;9.07;85.25
65131;BME280;51709;54.912;8.316;2022-11-15T18:54:02;100584.44;;;9.02;85.25
65131;BME280;51709;54.912;8.316;2022-11-15T18:59:23;100587.94;;;8.97;85.50
65131;BME280;51709;54.912;8.316;2022-11-15T19:04:43;100583.78;;;8.89;85.39
65131;BME280;51709;54.912;8.316;2022-11-15T19:10:04;100589.00;;;8.86;85.36
65131;BME280;51709;54.912;8.316;2022-11-15T19:15:25;100588.16;;;8.84;85.41
65131;BME280;51709;54.912;8.316;2022-11-15T19:20:45;100589.94;;;8.79;85.56
65131;BME280;51709;54.912;8.316;2022-11-15T19:26:11;100578.97;;;8.72;85.70
65131;BME280;51709;54.912;8.316;2022-11-15T19:31:33;100580.63;;;8.76;85.53
65131;BME280;51709;54.912;8.316;2022-11-15T19:36:53;100583.09;;;8.81;85.74
65131;BME280;51709;54.912;8.316;2022-11-15T19:42:14;100580.50;;;8.83;85.82
65131;BME280;51709;54.912;8.316;2022-11-15T19:47:35;100585.56;;;8.87;85.81
65131;BME280;51709;54.912;8.316;2022-11-15T19:52:57;100582.69;;;9.04;85.66
65131;BME280;51709;54.912;8.316;2022-11-15T19:58:17;100579.47;;;9.38;84.40
65131;BME280;51709;54.912;8.316;2022-11-15T20:03:38;100580.53;;;9.28;85.24
65131;BME280;51709;54.912;8.316;2022-11-15T20:09:00;100578.03;;;9.23;85.74
65131;BME280;51709;54.912;8.316;2022-11-15T20:14:20;100567.91;;;9.17;85.83
65131;BME280;51709;54.912;8.316;2022-11-15T20:19:43;100567.97;;;9.16;86.06
65131;BME280;51709;54.912;8.316;2022-11-15T20:25:04;100569.66;;;9.17;86.06
65131;BME280;51709;54.912;8.316;2022-11-15T20:30:25;100565.31;;;9.19;86.18
65131;BME280;51709;54.912;8.316;2022-11-15T20:35:45;100554.94;;;9.27;85.79
65131;BME280;51709;54.912;8.316;2022-11-15T20:41:06;100552.16;;;9.36;85.95
65131;BME280;51709;54.912;8.316;2022-11-15T20:46:27;100557.09;;;9.47;85.54
65131;BME280;51709;54.912;8.316;2022-11-15T20:51:47;100559.69;;;9.44;85.87
65131;BME280;51709;54.912;8.316;2022-11-15T20:57:08;100552.94;;;9.41;85.87
65131;BME280;51709;54.912;8.316;2022-11-15T21:02:29;100557.28;;;9.36;85.99
65131;BME280;51709;54.912;8.316;2022-11-15T21:07:51;100546.31;;;9.31;86.03
65131;BME280;51709;54.912;8.316;2022-11-15T21:13:12;100552.28;;;9.31;85.88
65131;BME280;51709;54.912;8.316;2022-11-15T21:18:32;100548.03;;;9.30;85.98
65131;BME280;51709;54.912;8.316;2022-11-15T21:23:53;100537.00;;;9.27;85.81
65131;BME280;51709;54.912;8.316;2022-11-15T21:29:14;100540.44;;;9.25;86.16
65131;BME280;51709;54.912;8.316;2022-11-15T21:34:36;100516.56;;;9.23;86.03
65131;BME280;51709;54.912;8.316;2022-11-15T21:39:57;100510.66;;;9.21;86.09
65131;BME280;51709;54.912;8.316;2022-11-15T21:45:18;100514.09;;;9.20;86.10
65131;BME280;51709;54.912;8.316;2022-11-15T21:50:38;100514.09;;;9.19;86.04
65131;BME280;51709;54.912;8.316;2022-11-15T21:56:00;100512.41;;;9.19;86.06
65131;BME280;51709;54.912;8.316;2022-11-15T22:01:22;100514.09;;;9.20;86.10
65131;BME280;51709;54.912;8.316;2022-11-15T22:07:01;100514.91;;;9.22;86.00
65131;BME280;51709;54.912;8.316;2022-11-15T22:12:21;100490.97;;;9.23;86.04
65131;BME280;51709;54.912;8.316;2022-11-15T22:17:48;100507.25;;;9.22;85.94
65131;BME280;51709;54.912;8.316;2022-11-15T22:23:18;100496.13;;;9.22;85.92
65131;BME280;51709;54.912;8.316;2022-11-15T22:28:39;100489.38;;;9.19;85.87
65131;BME280;51709;54.912;8.316;2022-11-15T22:33:59;100503.88;;;9.19;86.01
65131;BME280;51709;54.912;8.316;2022-11-15T22:39:20;100501.34;;;9.17;85.98
65131;BME280;51709;54.912;8.316;2022-11-15T22:44:40;100490.19;;;9.20;86.02
65131;BME280;51709;54.912;8.316;2022-11-15T22:50:01;100470.63;;;9.17;85.98
65131;BME280;51709;54.912;8.316;2022-11-15T22:55:23;100477.47;;;9.17;86.09
65131;BME280;51709;54.912;8.316;2022-11-15T23:00:47;100463.88;;;9.15;86.14
65131;BME280;51709;54.912;8.316;2022-11-15T23:06:08;100458.66;;;9.18;85.99
65131;BME280;51709;54.912;8.316;2022-11-15T23:11:28;100464.84;;;9.09;85.96
65131;BME280;51709;54.912;8.316;2022-11-15T23:17:07;100465.72;;;9.08;86.12
65131;BME280;51709;54.912;8.316;2022-11-15T23:22:28;100464.03;;;9.07;86.00
65131;BME280;51709;54.912;8.316;2022-11-15T23:28:18;100455.47;;;9.08;85.96
65131;BME280;51709;54.912;8.316;2022-11-15T23:33:38;100452.84;;;9.11;85.96
65131;BME280;51709;54.912;8.316;2022-11-15T23:39:17;100441.69;;;9.14;86.04
65131;BME280;51709;54.912;8.316;2022-11-15T23:44:38;100444.25;;;9.14;85.89
65131;BME280;51709;54.912;8.316;2022-11-15T23:49:59;100446.75;;;9.17;85.83
65131;BME280;51709;54.912;8.316;2022-11-15T23:55:19;100427.09;;;9.17;85.81
